LDRI/RJK METAR and TAF weather

Enter ICAO airport designator
Station Type Date Time Source
LDRI METAR 2020/01/28 05:00 UTC NOAA

LDRI 280500Z 12006KT 9999 -RA BKN037 10/09 Q1011


Station Type Date Time Source
LDRI Decoded METAR 2020/01/28 05:00 UTC NOAA

Rijeka / Omisalj, Croatia (LDRI) 45-13N 014-35E
Jan 28, 2020 - 12:00 AM EST / 2020.01.28 0500 UTC
Wind: from the ESE (120 degrees) at 7 MPH (6 KT):0
Visibility: greater than 7 mile(s):0
Sky conditions: mostly cloudy
Weather: light rain
Temperature: 50 F (10 C)
Dew Point: 48 F (9 C)
Relative Humidity: 93%
Pressure (altimeter): 29.85 in. Hg (1011 hPa)
ob: LDRI 280500Z 12006KT 9999 -RA BKN037 10/09 Q1011
cycle: 5

Station Type Date Time Source
LDRI TAF 2020/01/27 21:12 UTC NOAA

TAF
AMD TAF
AMD LDRI 272108Z 2721/2818 VRB02KT 9999 BKN025 TX13/2812Z TN06/2722Z PROB30
TEMPO 2803/2814 SHRA FEW025TCU BKN030
BECMG 2805/2807 16010KT PROB30
TEMPO 2814/2818 TSRA FEW025CB BKN030
BECMG 2816/2818 30008KT

Example: see airport list